sensor_id;sensor_type;location;lat;lon;timestamp;P1;durP1;ratioP1;P2;durP2;ratioP2
27684;SDS011;46113;50.130;8.526;2023-06-26T00:01:55;4.05;;;3.33;;
27684;SDS011;46113;50.130;8.526;2023-06-26T00:05:12;5.05;;;3.47;;
27684;SDS011;46113;50.130;8.526;2023-06-26T00:08:03;4.38;;;3.05;;
27684;SDS011;46113;50.130;8.526;2023-06-26T00:12:07;7.32;;;3.90;;
27684;SDS011;46113;50.130;8.526;2023-06-26T00:14:59;4.28;;;3.28;;
27684;SDS011;46113;50.130;8.526;2023-06-26T00:18:04;4.38;;;3.45;;
27684;SDS011;46113;50.130;8.526;2023-06-26T00:21:05;4.10;;;3.38;;
27684;SDS011;46113;50.130;8.526;2023-06-26T00:24:35;4.15;;;3.70;;
27684;SDS011;46113;50.130;8.526;2023-06-26T00:27:49;3.20;;;2.90;;
27684;SDS011;46113;50.130;8.526;2023-06-26T00:31:02;3.50;;;3.03;;
27684;SDS011;46113;50.130;8.526;2023-06-26T00:41:05;3.63;;;3.22;;
27684;SDS011;46113;50.130;8.526;2023-06-26T00:47:54;4.30;;;3.10;;
27684;SDS011;46113;50.130;8.526;2023-06-26T00:51:02;3.42;;;2.63;;
27684;SDS011;46113;50.130;8.526;2023-06-26T00:54:00;3.78;;;3.42;;
27684;SDS011;46113;50.130;8.526;2023-06-26T00:57:37;4.40;;;3.75;;
27684;SDS011;46113;50.130;8.526;2023-06-26T01:00:45;5.90;;;3.33;;
27684;SDS011;46113;50.130;8.526;2023-06-26T01:03:53;3.53;;;3.20;;
27684;SDS011;46113;50.130;8.526;2023-06-26T01:06:48;4.65;;;3.60;;
27684;SDS011;46113;50.130;8.526;2023-06-26T01:09:40;3.33;;;3.00;;
27684;SDS011;46113;50.130;8.526;2023-06-26T01:16:10;3.90;;;3.08;;
27684;SDS011;46113;50.130;8.526;2023-06-26T01:19:24;6.72;;;3.63;;
27684;SDS011;46113;50.130;8.526;2023-06-26T01:26:26;4.45;;;3.70;;
27684;SDS011;46113;50.130;8.526;2023-06-26T01:29:43;3.88;;;3.40;;
27684;SDS011;46113;50.130;8.526;2023-06-26T01:32:25;3.80;;;3.40;;
27684;SDS011;46113;50.130;8.526;2023-06-26T01:35:40;6.47;;;3.35;;
27684;SDS011;46113;50.130;8.526;2023-06-26T01:38:52;4.72;;;3.50;;
27684;SDS011;46113;50.130;8.526;2023-06-26T01:41:56;5.55;;;3.30;;
27684;SDS011;46113;50.130;8.526;2023-06-26T01:45:12;3.92;;;3.25;;
27684;SDS011;46113;50.130;8.526;2023-06-26T01:48:11;4.40;;;3.47;;
27684;SDS011;46113;50.130;8.526;2023-06-26T01:52:37;5.13;;;3.08;;
27684;SDS011;46113;50.130;8.526;2023-06-26T01:58:49;5.05;;;3.90;;
27684;SDS011;46113;50.130;8.526;2023-06-26T02:01:45;3.53;;;3.22;;
27684;SDS011;46113;50.130;8.526;2023-06-26T02:04:54;4.50;;;3.03;;
27684;SDS011;46113;50.130;8.526;2023-06-26T02:07:54;6.18;;;3.78;;
27684;SDS011;46113;50.130;8.526;2023-06-26T02:10:23;4.00;;;3.60;;
27684;SDS011;46113;50.130;8.526;2023-06-26T02:13:32;4.32;;;3.22;;
27684;SDS011;46113;50.130;8.526;2023-06-26T02:16:55;5.15;;;3.72;;
27684;SDS011;46113;50.130;8.526;2023-06-26T02:19:51;4.80;;;4.07;;
27684;SDS011;46113;50.130;8.526;2023-06-26T02:22:49;4.15;;;3.72;;
27684;SDS011;46113;50.130;8.526;2023-06-26T02:25:54;5.70;;;3.45;;
27684;SDS011;46113;50.130;8.526;2023-06-26T02:29:07;5.28;;;3.83;;
27684;SDS011;46113;50.130;8.526;2023-06-26T02:32:02;4.03;;;3.55;;
27684;SDS011;46113;50.130;8.526;2023-06-26T02:34:29;4.03;;;3.63;;
27684;SDS011;46113;50.130;8.526;2023-06-26T02:37:00;4.78;;;4.00;;
27684;SDS011;46113;50.130;8.526;2023-06-26T02:39:29;3.78;;;3.42;;
27684;SDS011;46113;50.130;8.526;2023-06-26T02:41:57;4.68;;;3.70;;
27684;SDS011;46113;50.130;8.526;2023-06-26T02:44:25;7.95;;;3.35;;
27684;SDS011;46113;50.130;8.526;2023-06-26T02:46:53;4.25;;;3.85;;
27684;SDS011;46113;50.130;8.526;2023-06-26T02:49:20;5.05;;;3.65;;
27684;SDS011;46113;50.130;8.526;2023-06-26T02:51:49;9.00;;;4.82;;
27684;SDS011;46113;50.130;8.526;2023-06-26T02:54:23;5.90;;;4.03;;
27684;SDS011;46113;50.130;8.526;2023-06-26T02:56:54;5.10;;;3.88;;
27684;SDS011;46113;50.130;8.526;2023-06-26T02:59:28;4.43;;;3.42;;
27684;SDS011;46113;50.130;8.526;2023-06-26T03:01:57;4.68;;;3.67;;
27684;SDS011;46113;50.130;8.526;2023-06-26T03:04:33;5.28;;;3.97;;
27684;SDS011;46113;50.130;8.526;2023-06-26T03:07:08;5.43;;;3.97;;
27684;SDS011;46113;50.130;8.526;2023-06-26T03:33:34;4.80;;;4.03;;
27684;SDS011;46113;50.130;8.526;2023-06-26T03:36:40;4.43;;;3.95;;
27684;SDS011;46113;50.130;8.526;2023-06-26T03:45:32;4.78;;;3.65;;
27684;SDS011;46113;50.130;8.526;2023-06-26T03:48:52;5.40;;;3.58;;
27684;SDS011;46113;50.130;8.526;2023-06-26T04:03:28;4.22;;;3.83;;
27684;SDS011;46113;50.130;8.526;2023-06-26T04:05:55;5.40;;;4.13;;
27684;SDS011;46113;50.130;8.526;2023-06-26T04:08:23;4.72;;;3.85;;
27684;SDS011;46113;50.130;8.526;2023-06-26T04:10:51;4.60;;;3.70;;
27684;SDS011;46113;50.130;8.526;2023-06-26T04:13:19;6.88;;;5.30;;
27684;SDS011;46113;50.130;8.526;2023-06-26T04:15:46;5.03;;;4.40;;
27684;SDS011;46113;50.130;8.526;2023-06-26T04:18:13;6.50;;;4.43;;
27684;SDS011;46113;50.130;8.526;2023-06-26T04:20:41;5.40;;;4.18;;
27684;SDS011;46113;50.130;8.526;2023-06-26T04:23:28;4.50;;;3.92;;
27684;SDS011;46113;50.130;8.526;2023-06-26T04:25:54;11.77;;;4.90;;
27684;SDS011;46113;50.130;8.526;2023-06-26T04:28:21;6.05;;;4.40;;
27684;SDS011;46113;50.130;8.526;2023-06-26T04:30:48;7.65;;;4.60;;
27684;SDS011;46113;50.130;8.526;2023-06-26T04:33:14;5.82;;;4.47;;
27684;SDS011;46113;50.130;8.526;2023-06-26T04:35:41;5.45;;;4.20;;
27684;SDS011;46113;50.130;8.526;2023-06-26T04:38:11;8.07;;;4.57;;
27684;SDS011;46113;50.130;8.526;2023-06-26T04:40:37;5.72;;;4.13;;
27684;SDS011;46113;50.130;8.526;2023-06-26T21:37:53;1.55;;;0.70;;
27684;SDS011;46113;50.130;8.526;2023-06-26T23:06:44;2.88;;;0.75;;
27684;SDS011;46113;50.130;8.526;2023-06-26T23:09:46;1.08;;;0.65;;
27684;SDS011;46113;50.130;8.526;2023-06-26T23:13:10;2.45;;;0.68;;
27684;SDS011;46113;50.130;8.526;2023-06-26T23:16:23;3.40;;;0.73;;
27684;SDS011;46113;50.130;8.526;2023-06-26T23:19:20;3.05;;;0.80;;
27684;SDS011;46113;50.130;8.526;2023-06-26T23:22:33;3.75;;;0.63;;
27684;SDS011;46113;50.130;8.526;2023-06-26T23:25:33;0.85;;;0.65;;
27684;SDS011;46113;50.130;8.526;2023-06-26T23:28:27;0.98;;;0.57;;
27684;SDS011;46113;50.130;8.526;2023-06-26T23:31:23;1.55;;;0.90;;
27684;SDS011;46113;50.130;8.526;2023-06-26T23:34:10;1.35;;;0.80;;
27684;SDS011;46113;50.130;8.526;2023-06-26T23:36:38;1.55;;;0.82;;
27684;SDS011;46113;50.130;8.526;2023-06-26T23:39:09;1.33;;;0.77;;
27684;SDS011;46113;50.130;8.526;2023-06-26T23:42:44;2.15;;;0.80;;
27684;SDS011;46113;50.130;8.526;2023-06-26T23:45:43;1.30;;;0.70;;
27684;SDS011;46113;50.130;8.526;2023-06-26T23:49:34;5.60;;;1.10;;
27684;SDS011;46113;50.130;8.526;2023-06-26T23:52:29;3.00;;;0.77;;
27684;SDS011;46113;50.130;8.526;2023-06-26T23:55:43;3.72;;;0.75;;
27684;SDS011;46113;50.130;8.526;2023-06-26T23:58:34;1.38;;;0.50;;
